createdAt,value
2018-11-06T00:02:05.358Z,14.00
2018-11-06T00:04:51.507Z,12.50
2018-11-06T00:07:36.044Z,14.00
2018-11-06T00:10:29.539Z,14.00
2018-11-06T00:21:29.126Z,14.00
2018-11-06T00:24:02.662Z,13.90
2018-11-06T00:26:34.887Z,14.70
2018-11-06T00:29:17.425Z,13.90
2018-11-06T00:31:51.121Z,13.90
2018-11-06T00:34:21.882Z,14.10
2018-11-06T00:36:52.224Z,13.80
2018-11-06T00:39:23.232Z,13.80
2018-11-06T00:41:55.260Z,13.70
2018-11-06T00:44:35.296Z,13.60
2018-11-06T00:47:05.322Z,13.60
2018-11-06T00:49:36.405Z,13.60
2018-11-06T00:52:12.225Z,15.10
2018-11-06T00:54:46.026Z,13.60
2018-11-06T00:57:19.968Z,13.60
2018-11-06T00:59:51.500Z,13.70
2018-11-06T01:02:23.400Z,13.60
2018-11-06T01:04:53.174Z,13.70
2018-11-06T01:07:22.971Z,13.60
2018-11-06T01:09:54.260Z,13.60
2018-11-06T01:12:26.489Z,13.60
2018-11-06T01:14:57.979Z,13.50
2018-11-06T01:17:27.949Z,13.60
2018-11-06T01:19:59.919Z,13.00
2018-11-06T01:22:32.008Z,13.50
2018-11-06T01:25:04.306Z,13.50
2018-11-06T01:27:35.559Z,13.50
2018-11-06T01:30:09.914Z,13.50
2018-11-06T01:32:40.376Z,13.50
2018-11-06T01:35:13.111Z,13.60
2018-11-06T01:37:44.414Z,13.50
2018-11-06T01:40:16.069Z,11.50
2018-11-06T01:42:46.153Z,13.40
2018-11-06T01:45:18.336Z,13.40
2018-11-06T01:47:55.496Z,13.40
2018-11-06T01:50:25.700Z,13.50
2018-11-06T01:52:55.824Z,13.50
2018-11-06T01:55:26.513Z,13.50
2018-11-06T01:57:56.089Z,13.30
2018-11-06T02:00:27.568Z,13.50
2018-11-06T02:02:57.507Z,14.40
2018-11-06T02:05:28.009Z,13.50
2018-11-06T02:07:58.793Z,13.50
2018-11-06T02:10:29.906Z,13.40
2018-11-06T02:12:59.652Z,15.40
2018-11-06T02:15:31.746Z,13.40
2018-11-06T02:18:02.585Z,13.40
2018-11-06T02:20:33.832Z,13.40
2018-11-06T02:23:04.379Z,13.40
2018-11-06T02:25:36.889Z,13.40
2018-11-06T02:28:08.240Z,13.30
2018-11-06T02:30:47.515Z,13.70
2018-11-06T02:33:17.959Z,13.30
2018-11-06T02:35:50.378Z,14.20
2018-11-06T02:38:20.613Z,13.30
2018-11-06T02:40:55.588Z,13.30
2018-11-06T02:43:27.243Z,13.20
2018-11-06T02:45:57.216Z,13.10
2018-11-06T02:48:27.477Z,13.10
2018-11-06T02:50:59.545Z,12.90
2018-11-06T02:53:30.204Z,12.60
2018-11-06T02:56:01.126Z,13.00
2018-11-06T02:58:32.544Z,13.00
2018-11-06T03:01:03.397Z,13.00
2018-11-06T03:03:40.161Z,13.20
2018-11-06T03:06:11.953Z,13.00
2018-11-06T03:08:43.504Z,13.10
2018-11-06T03:11:14.004Z,13.10
2018-11-06T03:13:43.619Z,13.10
2018-11-06T03:16:15.424Z,12.80
2018-11-06T03:18:45.165Z,12.70
2018-11-06T03:21:17.297Z,12.60
2018-11-06T03:23:47.526Z,12.70
2018-11-06T03:26:17.538Z,12.80
2018-11-06T03:28:48.939Z,12.50
2018-11-06T03:31:19.862Z,12.60
2018-11-06T03:33:50.620Z,12.60
2018-11-06T03:36:21.112Z,12.60
2018-11-06T03:38:53.900Z,12.60
2018-11-06T03:41:24.776Z,12.50
2018-11-06T03:43:55.836Z,12.50
2018-11-06T03:46:28.266Z,12.50
2018-11-06T03:48:59.105Z,12.60
2018-11-06T03:51:33.034Z,12.60
2018-11-06T03:54:04.969Z,12.80
2018-11-06T03:56:41.909Z,13.80
2018-11-06T03:59:12.935Z,12.40
2018-11-06T04:01:43.390Z,12.30
2018-11-06T04:04:13.144Z,13.00
2018-11-06T04:07:08.476Z,12.40
2018-11-06T04:09:38.715Z,14.30
2018-11-06T04:12:09.203Z,12.20
2018-11-06T04:14:41.684Z,12.30
2018-11-06T04:17:15.862Z,12.50
2018-11-06T04:19:46.017Z,12.50
2018-11-06T04:22:18.600Z,12.40
2018-11-06T04:24:49.970Z,12.20
2018-11-06T04:27:25.590Z,14.20
2018-11-06T04:30:03.264Z,12.20
2018-11-06T04:32:39.133Z,12.30
2018-11-06T04:35:10.338Z,13.60
2018-11-06T04:37:42.042Z,12.40
2018-11-06T04:40:13.987Z,12.20
2018-11-06T04:42:43.999Z,12.10
2018-11-06T04:45:14.523Z,12.20
2018-11-06T04:47:45.286Z,13.70
2018-11-06T04:50:15.787Z,12.20
2018-11-06T04:52:53.354Z,12.20
2018-11-06T04:55:25.877Z,12.10
2018-11-06T04:57:56.083Z,12.20
2018-11-06T05:00:27.539Z,12.20
2018-11-06T05:03:05.308Z,12.30
2018-11-06T05:05:35.557Z,12.40
2018-11-06T05:08:07.105Z,12.40
2018-11-06T05:10:39.051Z,12.40
2018-11-06T05:13:09.433Z,12.30
2018-11-06T05:15:40.976Z,12.30
2018-11-06T05:18:22.411Z,12.30
2018-11-06T05:23:33.988Z,12.40
2018-11-06T05:26:08.481Z,12.40
2018-11-06T05:28:40.388Z,12.50
2018-11-06T05:31:24.515Z,12.40
2018-11-06T05:33:56.047Z,12.40
2018-11-06T05:36:29.816Z,12.40
2018-11-06T05:39:04.995Z,12.40
2018-11-06T05:41:46.614Z,12.50
2018-11-06T05:44:22.088Z,12.40
2018-11-06T05:46:58.547Z,12.40
2018-11-06T05:49:34.702Z,12.40
2018-11-06T05:52:06.518Z,12.30
2018-11-06T05:54:37.848Z,12.30
2018-11-06T05:57:10.177Z,12.40
2018-11-06T05:59:40.094Z,12.30
2018-11-06T06:02:12.317Z,12.20
2018-11-06T06:04:46.812Z,12.30
2018-11-06T06:07:22.565Z,12.30
2018-11-06T06:10:04.901Z,12.30
2018-11-06T06:12:39.567Z,12.30
2018-11-06T06:15:16.983Z,12.30
2018-11-06T06:17:47.583Z,12.50
2018-11-06T06:20:20.961Z,12.40
2018-11-06T06:23:00.166Z,12.50
2018-11-06T06:25:32.920Z,12.40
2018-11-06T06:28:05.685Z,12.50
2018-11-06T06:30:39.906Z,12.90
2018-11-06T06:33:14.770Z,12.50
2018-11-06T06:35:48.786Z,12.70
2018-11-06T06:38:31.382Z,12.70
2018-11-06T06:44:06.429Z,12.70
2018-11-06T06:46:41.286Z,12.90
2018-11-06T06:49:16.741Z,12.60
2018-11-06T06:51:49.208Z,12.60
2018-11-06T06:54:20.793Z,12.70
2018-11-06T06:56:52.506Z,12.80
2018-11-06T07:02:15.886Z,12.90
2018-11-06T07:07:29.892Z,13.00
2018-11-06T07:10:04.603Z,13.00
2018-11-06T07:12:41.245Z,13.00
2018-11-06T07:15:28.079Z,13.10
2018-11-06T07:18:06.699Z,13.10
2018-11-06T07:20:41.904Z,13.20
2018-11-06T07:23:13.074Z,13.30
2018-11-06T07:25:42.652Z,13.40
2018-11-06T07:30:51.587Z,13.50
2018-11-06T07:33:21.751Z,13.60
2018-11-06T07:35:52.182Z,13.80
2018-11-06T07:38:22.874Z,13.90
2018-11-06T07:40:53.338Z,14.00
2018-11-06T07:43:23.802Z,14.10
2018-11-06T07:45:56.060Z,12.60
2018-11-06T07:48:30.682Z,14.20
2018-11-06T07:51:07.195Z,14.30
2018-11-06T07:53:37.617Z,14.40
2018-11-06T07:56:08.481Z,13.30
2018-11-06T07:58:40.372Z,14.80
2018-11-06T08:01:09.965Z,15.00
2018-11-06T08:03:51.056Z,16.00
2018-11-06T08:06:22.232Z,15.30
2018-11-06T08:11:34.841Z,15.70
2018-11-06T08:14:08.464Z,15.80
2018-11-06T08:16:37.668Z,15.90
2018-11-06T08:19:11.376Z,16.00
2018-11-06T08:21:44.345Z,16.30
2018-11-06T08:24:15.080Z,16.30
2018-11-06T08:26:50.424Z,16.40
2018-11-06T08:29:20.127Z,16.50
2018-11-06T08:31:51.281Z,16.60
2018-11-06T08:34:26.505Z,16.70
2018-11-06T08:36:56.621Z,16.70
2018-11-06T08:39:26.147Z,16.80
2018-11-06T08:42:01.641Z,16.80
2018-11-06T08:44:42.257Z,16.90
2018-11-06T08:47:12.887Z,16.90
2018-11-06T08:49:42.891Z,17.00
2018-11-06T08:52:12.810Z,17.10
2018-11-06T08:54:43.816Z,17.20
2018-11-06T08:57:15.008Z,17.80
2018-11-06T08:59:49.536Z,17.40
2018-11-06T09:02:20.248Z,17.50
2018-11-06T09:04:52.947Z,17.60
2018-11-06T09:07:23.166Z,17.60
2018-11-06T09:09:56.871Z,17.70
2018-11-06T09:12:27.893Z,17.80
2018-11-06T09:15:03.228Z,17.80
2018-11-06T09:17:38.579Z,17.90
2018-11-06T09:20:09.939Z,18.00
2018-11-06T09:22:41.498Z,18.00
2018-11-06T09:25:16.002Z,18.10
2018-11-06T09:27:46.267Z,18.10
2018-11-06T09:30:22.403Z,18.30
2018-11-06T09:33:11.787Z,18.40
2018-11-06T09:35:44.842Z,18.60
2018-11-06T09:38:16.640Z,18.70
2018-11-06T09:40:48.082Z,18.70
2018-11-06T09:43:22.371Z,18.90
2018-11-06T09:45:59.440Z,19.00
2018-11-06T09:48:33.995Z,19.10
2018-11-06T09:51:05.898Z,19.20
2018-11-06T09:53:36.778Z,19.30
2018-11-06T09:56:09.128Z,20.40
2018-11-06T09:58:38.807Z,19.80
2018-11-06T10:01:08.919Z,21.10
2018-11-06T10:03:39.615Z,22.90
2018-11-06T10:06:10.587Z,24.60
2018-11-06T10:08:44.667Z,25.50
2018-11-06T10:11:16.570Z,26.00
2018-11-06T10:13:55.469Z,26.90
2018-11-06T10:16:29.687Z,25.90
2018-11-06T10:19:07.764Z,25.10
2018-11-06T10:21:38.594Z,25.90
2018-11-06T10:24:09.068Z,26.70
2018-11-06T10:26:39.689Z,27.20
2018-11-06T10:29:12.593Z,27.40
2018-11-06T10:31:47.606Z,27.30
2018-11-06T10:34:17.850Z,28.20
2018-11-06T10:36:48.661Z,26.00
2018-11-06T10:39:18.601Z,25.20
2018-11-06T10:41:49.744Z,26.30
2018-11-06T10:44:21.062Z,25.00
2018-11-06T10:47:01.017Z,25.00
2018-11-06T10:49:30.993Z,25.00
2018-11-06T10:52:01.767Z,25.00
2018-11-06T10:54:31.983Z,24.20
2018-11-06T10:57:01.653Z,26.30
2018-11-06T10:59:34.170Z,25.90
2018-11-06T11:02:12.246Z,25.50
2018-11-06T11:04:43.282Z,26.00
2018-11-06T11:07:14.186Z,26.20
2018-11-06T11:09:45.179Z,24.40
2018-11-06T11:12:19.782Z,26.10
2018-11-06T11:14:50.574Z,27.20
2018-11-06T11:17:22.034Z,27.70
2018-11-06T11:19:52.257Z,26.80
2018-11-06T11:22:23.285Z,25.90
2018-11-06T11:24:58.490Z,25.30
2018-11-06T11:27:33.419Z,26.30
2018-11-06T11:30:20.691Z,25.60
2018-11-06T11:32:52.905Z,26.40
2018-11-06T11:35:22.842Z,26.00
2018-11-06T11:37:57.975Z,25.60
2018-11-06T11:40:30.781Z,24.60
2018-11-06T11:43:01.932Z,23.10
2018-11-06T11:45:37.840Z,22.70
2018-11-06T11:48:08.401Z,22.20
2018-11-06T11:50:37.971Z,22.10
2018-11-06T11:53:07.301Z,22.10
2018-11-06T11:55:37.015Z,22.20
2018-11-06T11:58:06.723Z,22.00
2018-11-06T12:00:41.765Z,22.00
2018-11-06T12:03:13.107Z,22.00
2018-11-06T12:05:43.373Z,21.90
2018-11-06T12:08:12.805Z,21.80
2018-11-06T12:10:43.135Z,22.00
2018-11-06T12:13:13.277Z,22.20
2018-11-06T12:15:43.060Z,22.20
2018-11-06T12:21:14.819Z,22.20
2018-11-06T12:23:46.691Z,23.40
2018-11-06T12:26:19.474Z,24.80
2018-11-06T12:28:49.062Z,25.00
2018-11-06T12:31:25.321Z,25.10
2018-11-06T12:34:01.084Z,25.80
2018-11-06T12:36:35.918Z,27.80
2018-11-06T12:39:07.194Z,27.20
2018-11-06T12:41:38.461Z,27.20
2018-11-06T12:46:50.706Z,27.10
2018-11-06T12:49:20.201Z,25.50
2018-11-06T12:51:50.490Z,23.80
2018-11-06T12:54:22.739Z,23.30
2018-11-06T12:56:53.164Z,23.10
2018-11-06T12:59:24.704Z,23.20
2018-11-06T13:01:58.430Z,23.00
2018-11-06T13:04:28.939Z,22.90
2018-11-06T13:07:01.962Z,22.80
2018-11-06T13:09:31.734Z,22.30
2018-11-06T13:12:01.234Z,22.60
2018-11-06T13:14:30.567Z,22.50
2018-11-06T13:17:02.128Z,22.40
2018-11-06T13:19:31.518Z,22.50
2018-11-06T13:22:02.696Z,22.50
2018-11-06T13:24:32.052Z,22.50
2018-11-06T13:27:01.707Z,22.40
2018-11-06T13:29:32.733Z,22.40
2018-11-06T13:32:04.615Z,22.40
2018-11-06T13:34:36.554Z,22.40
2018-11-06T13:37:06.551Z,22.30
2018-11-06T13:39:38.823Z,22.30
2018-11-06T13:42:16.308Z,21.40
2018-11-06T13:48:07.458Z,22.30
2018-11-06T13:50:39.606Z,22.30
2018-11-06T13:53:09.618Z,22.30
2018-11-06T13:55:42.921Z,22.20
2018-11-06T13:58:14.474Z,20.20
2018-11-06T14:00:50.928Z,21.90
2018-11-06T14:03:21.267Z,21.20
2018-11-06T14:05:54.998Z,21.90
2018-11-06T14:11:13.533Z,21.80
2018-11-06T14:13:46.971Z,21.70
2018-11-06T14:16:19.734Z,21.70
2018-11-06T14:18:50.497Z,21.70
2018-11-06T14:24:01.557Z,21.60
2018-11-06T14:26:39.902Z,21.00
2018-11-06T14:29:50.858Z,21.40
2018-11-06T14:38:21.336Z,21.20
2018-11-06T14:43:58.135Z,21.10
2018-11-06T14:46:51.189Z,21.00
2018-11-06T14:53:06.584Z,20.90
2018-11-06T14:58:24.299Z,20.70
2018-11-06T15:21:07.942Z,18.20
2018-11-06T15:43:48.101Z,19.50
2018-11-06T15:49:11.319Z,19.30
2018-11-06T15:51:47.437Z,19.20
2018-11-06T15:54:18.547Z,19.30
2018-11-06T15:56:58.604Z,18.90
2018-11-06T15:59:29.563Z,18.90
2018-11-06T16:02:00.016Z,18.80
2018-11-06T16:13:14.032Z,18.60
2018-11-06T16:15:45.257Z,18.20
2018-11-06T16:18:16.005Z,17.70
2018-11-06T16:20:45.601Z,18.50
2018-11-06T16:23:16.452Z,18.50
2018-11-06T16:25:57.028Z,18.50
2018-11-06T16:28:27.581Z,19.30
2018-11-06T16:30:58.076Z,18.40
2018-11-06T16:33:31.617Z,18.40
2018-11-06T16:36:04.904Z,18.40
2018-11-06T16:38:35.324Z,18.40
2018-11-06T16:41:09.270Z,18.30
2018-11-06T16:43:41.227Z,18.30
2018-11-06T16:46:12.940Z,18.30
2018-11-06T16:48:43.726Z,18.20
2018-11-06T16:51:13.025Z,18.30
2018-11-06T16:53:43.049Z,18.20
2018-11-06T16:56:13.292Z,18.20
2018-11-06T16:58:53.695Z,16.60
2018-11-06T17:01:24.599Z,18.60
2018-11-06T17:03:54.084Z,18.10
2018-11-06T17:06:32.818Z,18.00
2018-11-06T17:09:05.524Z,17.90
2018-11-06T17:14:12.116Z,17.20
2018-11-06T17:16:42.148Z,17.90
2018-11-06T17:19:13.242Z,17.90
2018-11-06T17:21:43.443Z,17.90
2018-11-06T17:24:18.730Z,17.90
2018-11-06T17:26:49.083Z,17.90
2018-11-06T17:29:20.357Z,17.90
2018-11-06T17:31:54.675Z,17.90
2018-11-06T17:34:24.581Z,17.90
2018-11-06T17:36:58.161Z,17.80
2018-11-06T17:39:28.793Z,17.80
2018-11-06T17:42:01.091Z,17.80
2018-11-06T17:44:34.947Z,17.80
2018-11-06T17:47:05.277Z,17.80
2018-11-06T17:49:37.609Z,17.80
2018-11-06T17:52:18.282Z,17.70
2018-11-06T17:54:48.356Z,17.80
2018-11-06T17:57:21.794Z,17.80
2018-11-06T17:59:55.069Z,17.70
2018-11-06T18:02:42.797Z,17.70
2018-11-06T18:05:16.715Z,17.60
2018-11-06T18:07:46.475Z,17.60
2018-11-06T18:10:25.939Z,17.60
2018-11-06T18:15:47.539Z,17.50
2018-11-06T18:18:21.519Z,17.10
2018-11-06T18:20:54.843Z,17.40
2018-11-06T18:23:30.030Z,17.40
2018-11-06T18:26:01.190Z,17.30
2018-11-06T18:28:33.561Z,17.40
2018-11-06T18:31:05.154Z,17.40
2018-11-06T18:33:57.598Z,17.30
2018-11-06T18:36:29.307Z,17.20
2018-11-06T18:39:04.111Z,20.80
2018-11-06T18:41:39.954Z,17.10
2018-11-06T18:44:13.772Z,17.00
2018-11-06T18:46:52.639Z,17.10
2018-11-06T18:49:23.750Z,17.10
2018-11-06T18:51:55.125Z,17.00
2018-11-06T18:54:28.632Z,16.90
2018-11-06T18:56:58.944Z,16.80
2018-11-06T18:59:31.599Z,16.80
2018-11-06T19:02:01.092Z,16.70
2018-11-06T19:04:33.203Z,18.50
2018-11-06T19:07:05.170Z,16.70
2018-11-06T19:09:38.606Z,16.70
2018-11-06T19:12:09.027Z,16.70
2018-11-06T19:14:39.028Z,16.70
2018-11-06T19:17:10.542Z,16.60
2018-11-06T19:19:44.142Z,16.60
2018-11-06T19:24:57.627Z,16.50
2018-11-06T19:27:27.945Z,16.50
2018-11-06T19:30:04.904Z,15.70
2018-11-06T19:32:43.348Z,16.40
2018-11-06T19:35:13.109Z,15.30
2018-11-06T19:40:24.891Z,16.50
2018-11-06T19:42:59.424Z,16.40
2018-11-06T19:45:29.268Z,16.40
2018-11-06T19:48:04.444Z,16.50
2018-11-06T19:50:36.328Z,16.50
2018-11-06T19:53:08.208Z,16.50
2018-11-06T19:55:43.335Z,15.70
2018-11-06T19:58:14.863Z,16.40
2018-11-06T20:01:00.348Z,16.30
2018-11-06T20:06:09.665Z,16.20
2018-11-06T20:08:45.651Z,16.30
2018-11-06T20:11:17.049Z,16.30
2018-11-06T20:13:56.742Z,16.20
2018-11-06T20:16:28.915Z,16.20
2018-11-06T20:19:00.360Z,16.20
2018-11-06T20:21:35.540Z,16.20
2018-11-06T20:24:08.229Z,16.20
2018-11-06T20:26:49.949Z,16.10
2018-11-06T20:29:22.631Z,16.10
2018-11-06T20:31:52.217Z,16.10
2018-11-06T20:34:24.306Z,16.10
2018-11-06T20:36:59.470Z,16.10
2018-11-06T20:39:32.608Z,16.10
2018-11-06T20:42:02.112Z,15.70
2018-11-06T20:44:32.126Z,16.00
2018-11-06T20:47:08.308Z,16.00
2018-11-06T20:49:41.484Z,15.90
2018-11-06T20:52:15.520Z,16.00
2018-11-06T20:54:48.692Z,16.00
2018-11-06T20:57:19.985Z,16.80
2018-11-06T20:59:51.651Z,15.90
2018-11-06T21:02:23.930Z,17.60
2018-11-06T21:05:04.806Z,15.90
2018-11-06T21:07:37.833Z,15.80
2018-11-06T21:10:10.188Z,15.90
2018-11-06T21:12:41.084Z,15.90
2018-11-06T21:15:14.249Z,15.80
2018-11-06T21:17:46.050Z,15.70
2018-11-06T21:20:19.122Z,17.00
2018-11-06T21:22:50.556Z,15.80
2018-11-06T21:25:21.195Z,16.00
2018-11-06T21:27:51.071Z,15.90
2018-11-06T21:30:23.670Z,15.30
2018-11-06T21:32:57.878Z,16.90
2018-11-06T21:35:29.905Z,15.70
2018-11-06T21:38:01.968Z,15.80
2018-11-06T21:40:33.568Z,15.80
2018-11-06T21:43:09.004Z,15.80
2018-11-06T21:45:39.915Z,14.50
2018-11-06T21:48:10.934Z,15.80
2018-11-06T21:50:44.249Z,15.80
2018-11-06T21:53:14.495Z,15.90
2018-11-06T21:55:47.030Z,15.90
2018-11-06T21:58:21.497Z,15.80
2018-11-06T22:00:53.811Z,15.80
2018-11-06T22:03:23.584Z,15.80
2018-11-06T22:05:52.983Z,15.80
2018-11-06T22:08:23.967Z,15.80
2018-11-06T22:10:54.080Z,16.60
2018-11-06T22:13:27.050Z,15.70
2018-11-06T22:15:58.280Z,15.70
2018-11-06T22:18:30.489Z,15.70
2018-11-06T22:20:59.913Z,15.70
2018-11-06T22:23:35.090Z,15.70
2018-11-06T22:26:04.667Z,15.70
2018-11-06T22:28:36.395Z,15.70
2018-11-06T22:31:07.330Z,15.70
2018-11-06T22:33:38.265Z,15.70
2018-11-06T22:36:13.829Z,15.60
2018-11-06T22:38:43.893Z,15.80
2018-11-06T22:41:14.568Z,15.50
2018-11-06T22:43:44.982Z,15.40
2018-11-06T22:46:14.402Z,15.60
2018-11-06T22:48:45.790Z,15.50
2018-11-06T22:51:22.544Z,15.30
2018-11-06T22:53:58.907Z,15.50
2018-11-06T22:56:28.639Z,15.40
2018-11-06T22:59:00.758Z,15.40
2018-11-06T23:01:33.115Z,15.40
2018-11-06T23:04:03.445Z,15.40
2018-11-06T23:06:34.106Z,15.30
2018-11-06T23:09:06.705Z,15.30
2018-11-06T23:11:38.225Z,15.20
2018-11-06T23:14:10.194Z,15.20
2018-11-06T23:16:44.645Z,15.10
2018-11-06T23:19:15.689Z,15.90
2018-11-06T23:21:47.458Z,15.10
2018-11-06T23:24:17.951Z,15.10
2018-11-06T23:26:50.507Z,15.00
2018-11-06T23:29:22.522Z,15.00
2018-11-06T23:31:54.233Z,15.00
2018-11-06T23:34:24.432Z,14.90
2018-11-06T23:36:57.156Z,15.00
2018-11-06T23:39:27.153Z,15.00
2018-11-06T23:41:59.927Z,14.90
2018-11-06T23:44:31.007Z,14.70
2018-11-06T23:47:00.921Z,15.90
2018-11-06T23:49:32.009Z,14.80
2018-11-06T23:52:02.873Z,14.80
2018-11-06T23:54:45.365Z,15.20
2018-11-06T23:57:16.808Z,14.80
2018-11-06T23:59:46.846Z,14.80
